sensor_id;sensor_type;location;lat;lon;timestamp;pressure;altitude;pressure_sealevel;temperature;humidity
22872;BME280;11603;44.910;8.630;2023-04-08T00:00:40;100687.06;;;10.11;100.00
22872;BME280;11603;44.910;8.630;2023-04-08T00:03:06;100698.63;;;10.11;100.00
22872;BME280;11603;44.910;8.630;2023-04-08T00:05:32;100695.72;;;10.16;100.00
22872;BME280;11603;44.910;8.630;2023-04-08T00:07:57;100701.66;;;10.21;100.00
22872;BME280;11603;44.910;8.630;2023-04-08T00:10:23;100690.97;;;10.21;100.00
22872;BME280;11603;44.910;8.630;2023-04-08T00:12:50;100688.28;;;10.21;100.00
22872;BME280;11603;44.910;8.630;2023-04-08T00:15:16;100687.53;;;10.19;100.00
22872;BME280;11603;44.910;8.630;2023-04-08T00:17:42;100690.88;;;10.23;100.00
22872;BME280;11603;44.910;8.630;2023-04-08T00:20:09;100686.13;;;10.28;100.00
22872;BME280;11603;44.910;8.630;2023-04-08T00:22:35;100698.22;;;10.19;100.00
22872;BME280;11603;44.910;8.630;2023-04-08T00:25:05;100691.06;;;10.19;100.00
22872;BME280;11603;44.910;8.630;2023-04-08T00:27:32;100686.31;;;10.25;100.00
22872;BME280;11603;44.910;8.630;2023-04-08T00:29:57;100693.47;;;10.24;100.00
22872;BME280;11603;44.910;8.630;2023-04-08T00:32:25;100679.91;;;10.27;100.00
22872;BME280;11603;44.910;8.630;2023-04-08T00:34:51;100679.81;;;10.29;100.00
22872;BME280;11603;44.910;8.630;2023-04-08T00:37:17;100689.84;;;10.25;100.00
22872;BME280;11603;44.910;8.630;2023-04-08T00:39:43;100687.41;;;10.20;100.00
22872;BME280;11603;44.910;8.630;2023-04-08T00:42:08;100683.38;;;10.13;100.00
22872;BME280;11603;44.910;8.630;2023-04-08T00:44:34;100680.88;;;10.10;100.00
22872;BME280;11603;44.910;8.630;2023-04-08T00:46:59;100680.03;;;10.10;100.00
22872;BME280;11603;44.910;8.630;2023-04-08T00:49:30;100672.44;;;10.02;100.00
22872;BME280;11603;44.910;8.630;2023-04-08T00:51:58;100670.91;;;9.98;100.00
22872;BME280;11603;44.910;8.630;2023-04-08T00:54:23;100663.88;;;9.82;100.00
22872;BME280;11603;44.910;8.630;2023-04-08T00:56:51;100667.41;;;9.82;100.00
22872;BME280;11603;44.910;8.630;2023-04-08T00:59:18;100661.63;;;9.74;100.00
22872;BME280;11603;44.910;8.630;2023-04-08T01:01:50;100665.34;;;9.71;100.00
22872;BME280;11603;44.910;8.630;2023-04-08T01:06:55;100662.78;;;9.54;100.00
22872;BME280;11603;44.910;8.630;2023-04-08T01:09:26;100661.91;;;9.54;100.00
22872;BME280;11603;44.910;8.630;2023-04-08T01:11:57;100664.84;;;9.49;100.00
22872;BME280;11603;44.910;8.630;2023-04-08T01:14:51;100666.50;;;9.52;100.00
22872;BME280;11603;44.910;8.630;2023-04-08T01:18:11;100668.97;;;9.55;100.00
22872;BME280;11603;44.910;8.630;2023-04-08T01:21:10;100656.56;;;9.54;100.00
22872;BME280;11603;44.910;8.630;2023-04-08T01:26:25;100655.44;;;9.58;100.00
22872;BME280;11603;44.910;8.630;2023-04-08T01:29:09;100656.06;;;9.63;100.00
22872;BME280;11603;44.910;8.630;2023-04-08T01:32:55;100655.22;;;9.62;100.00
22872;BME280;11603;44.910;8.630;2023-04-08T01:35:21;100654.34;;;9.62;100.00
22872;BME280;11603;44.910;8.630;2023-04-08T01:37:49;100642.78;;;9.61;100.00
22872;BME280;11603;44.910;8.630;2023-04-08T01:40:17;100658.28;;;9.70;100.00
22872;BME280;11603;44.910;8.630;2023-04-08T01:42:44;100662.81;;;9.84;100.00
22872;BME280;11603;44.910;8.630;2023-04-08T01:45:10;100659.91;;;9.89;100.00
22872;BME280;11603;44.910;8.630;2023-04-08T01:47:37;100666.78;;;9.93;100.00
22872;BME280;11603;44.910;8.630;2023-04-08T01:50:05;100664.88;;;9.95;100.00
22872;BME280;11603;44.910;8.630;2023-04-08T01:52:33;100673.00;;;9.93;100.00
22872;BME280;11603;44.910;8.630;2023-04-08T01:54:59;100685.75;;;9.88;100.00
22872;BME280;11603;44.910;8.630;2023-04-08T01:57:27;100678.59;;;9.89;100.00
22872;BME280;11603;44.910;8.630;2023-04-08T02:00:01;100679.56;;;9.88;100.00
22872;BME280;11603;44.910;8.630;2023-04-08T02:02:29;100678.50;;;9.90;100.00
22872;BME280;11603;44.910;8.630;2023-04-08T02:04:57;100681.28;;;9.89;100.00
22872;BME280;11603;44.910;8.630;2023-04-08T02:07:22;100678.59;;;9.89;100.00
22872;BME280;11603;44.910;8.630;2023-04-08T02:09:56;100675.22;;;9.85;100.00
22872;BME280;11603;44.910;8.630;2023-04-08T02:12:22;100677.81;;;9.87;100.00
22872;BME280;11603;44.910;8.630;2023-04-08T02:14:48;100674.75;;;9.78;100.00
22872;BME280;11603;44.910;8.630;2023-04-08T02:17:21;100682.06;;;9.75;100.00
22872;BME280;11603;44.910;8.630;2023-04-08T02:25:16;100673.19;;;9.59;100.00
22872;BME280;11603;44.910;8.630;2023-04-08T02:27:46;100672.31;;;9.58;100.00
22872;BME280;11603;44.910;8.630;2023-04-08T02:30:16;100677.44;;;9.63;100.00
22872;BME280;11603;44.910;8.630;2023-04-08T02:35:53;100673.38;;;9.56;100.00
22872;BME280;11603;44.910;8.630;2023-04-08T02:38:22;100678.63;;;9.57;100.00
22872;BME280;11603;44.910;8.630;2023-04-08T02:41:16;100670.97;;;9.51;100.00
22872;BME280;11603;44.910;8.630;2023-04-08T02:43:42;100671.06;;;9.50;100.00
22872;BME280;11603;44.910;8.630;2023-04-08T02:46:08;100679.06;;;9.50;100.00
22872;BME280;11603;44.910;8.630;2023-04-08T02:48:35;100679.25;;;9.47;100.00
22872;BME280;11603;44.910;8.630;2023-04-08T02:51:01;100669.84;;;9.40;100.00
22872;BME280;11603;44.910;8.630;2023-04-08T02:53:28;100674.31;;;9.39;100.00
22872;BME280;11603;44.910;8.630;2023-04-08T02:55:59;100665.44;;;9.39;100.00
22872;BME280;11603;44.910;8.630;2023-04-08T02:58:26;100671.13;;;9.32;100.00
22872;BME280;11603;44.910;8.630;2023-04-08T03:00:53;100674.91;;;9.28;100.00
22872;BME280;11603;44.910;8.630;2023-04-08T03:03:28;100667.69;;;9.30;100.00
22872;BME280;11603;44.910;8.630;2023-04-08T03:05:59;100672.94;;;9.32;100.00
22872;BME280;11603;44.910;8.630;2023-04-08T03:08:43;100671.03;;;9.34;100.00
22872;BME280;11603;44.910;8.630;2023-04-08T03:11:41;100679.31;;;9.29;100.00
22872;BME280;11603;44.910;8.630;2023-04-08T03:14:20;100667.44;;;9.19;100.00
22872;BME280;11603;44.910;8.630;2023-04-08T03:16:46;100675.22;;;9.07;100.00
22872;BME280;11603;44.910;8.630;2023-04-08T03:19:12;100669.13;;;9.05;100.00
22872;BME280;11603;44.910;8.630;2023-04-08T03:21:40;100665.59;;;9.04;100.00
22872;BME280;11603;44.910;8.630;2023-04-08T03:31:28;100678.50;;;9.12;100.00
22872;BME280;11603;44.910;8.630;2023-04-08T03:37:35;100675.69;;;9.15;100.00
22872;BME280;11603;44.910;8.630;2023-04-08T03:40:02;100684.78;;;9.11;100.00
22872;BME280;11603;44.910;8.630;2023-04-08T03:42:37;100677.81;;;9.08;100.00
22872;BME280;11603;44.910;8.630;2023-04-08T03:45:49;100676.53;;;9.00;100.00
22872;BME280;11603;44.910;8.630;2023-04-08T03:48:27;100685.13;;;8.89;100.00
22872;BME280;11603;44.910;8.630;2023-04-08T03:50:54;100676.06;;;8.91;100.00
22872;BME280;11603;44.910;8.630;2023-04-08T03:53:20;100673.31;;;8.93;100.00
22872;BME280;11603;44.910;8.630;2023-04-08T04:06:03;100682.47;;;9.05;100.00
22872;BME280;11603;44.910;8.630;2023-04-08T04:08:38;100672.81;;;9.02;100.00
22872;BME280;11603;44.910;8.630;2023-04-08T04:11:04;100673.75;;;9.01;100.00
22872;BME280;11603;44.910;8.630;2023-04-08T04:16:57;100689.19;;;9.12;100.00
22872;BME280;11603;44.910;8.630;2023-04-08T04:19:46;100680.31;;;9.11;100.00
22872;BME280;11603;44.910;8.630;2023-04-08T04:31:56;100695.09;;;9.01;100.00
22872;BME280;11603;44.910;8.630;2023-04-08T04:34:21;100691.56;;;9.01;100.00
22872;BME280;11603;44.910;8.630;2023-04-08T04:40:35;100696.22;;;8.97;100.00
22872;BME280;11603;44.910;8.630;2023-04-08T04:53:32;100696.81;;;8.69;100.00
22872;BME280;11603;44.910;8.630;2023-04-08T05:00:02;100696.91;;;8.68;100.00
22872;BME280;11603;44.910;8.630;2023-04-08T05:02:28;100697.94;;;8.65;100.00
22872;BME280;11603;44.910;8.630;2023-04-08T05:08:59;100709.06;;;8.56;100.00
22872;BME280;11603;44.910;8.630;2023-04-08T05:11:34;100719.06;;;8.53;100.00
22872;BME280;11603;44.910;8.630;2023-04-08T05:14:36;100716.59;;;8.48;100.00
22872;BME280;11603;44.910;8.630;2023-04-08T05:17:14;100723.81;;;8.46;100.00
22872;BME280;11603;44.910;8.630;2023-04-08T05:19:40;100723.03;;;8.44;100.00
22872;BME280;11603;44.910;8.630;2023-04-08T05:22:05;100720.22;;;8.47;100.00
22872;BME280;11603;44.910;8.630;2023-04-08T05:27:59;100721.44;;;8.74;100.00
22872;BME280;11603;44.910;8.630;2023-04-08T05:30:57;100720.41;;;8.94;100.00
22872;BME280;11603;44.910;8.630;2023-04-08T05:34:14;100717.91;;;9.07;100.00
22872;BME280;11603;44.910;8.630;2023-04-08T05:41:27;100717.66;;;9.11;100.00
22872;BME280;11603;44.910;8.630;2023-04-08T05:43:53;100724.69;;;8.97;100.00
22872;BME280;11603;44.910;8.630;2023-04-08T05:46:19;100726.13;;;8.86;100.00
22872;BME280;11603;44.910;8.630;2023-04-08T05:48:53;100723.31;;;8.89;100.00
22872;BME280;11603;44.910;8.630;2023-04-08T05:54:31;100729.78;;;9.01;100.00
22872;BME280;11603;44.910;8.630;2023-04-08T05:56:56;100730.25;;;9.09;100.00
22872;BME280;11603;44.910;8.630;2023-04-08T05:59:22;100731.97;;;9.10;100.00
22872;BME280;11603;44.910;8.630;2023-04-08T06:01:58;100735.00;;;9.20;100.00
22872;BME280;11603;44.910;8.630;2023-04-08T06:04:33;100738.28;;;9.25;100.00
22872;BME280;11603;44.910;8.630;2023-04-08T06:06:58;100744.50;;;9.25;100.00
22872;BME280;11603;44.910;8.630;2023-04-08T06:09:27;100746.56;;;9.20;100.00
22872;BME280;11603;44.910;8.630;2023-04-08T06:12:00;100754.63;;;9.19;100.00
22872;BME280;11603;44.910;8.630;2023-04-08T06:14:26;100759.78;;;9.22;100.00
22872;BME280;11603;44.910;8.630;2023-04-08T06:17:21;100762.81;;;9.16;100.00
22872;BME280;11603;44.910;8.630;2023-04-08T06:19:46;100763.22;;;9.08;100.00
22872;BME280;11603;44.910;8.630;2023-04-08T06:22:19;100761.28;;;8.95;100.00
22872;BME280;11603;44.910;8.630;2023-04-08T06:24:46;100761.09;;;8.98;100.00
22872;BME280;11603;44.910;8.630;2023-04-08T06:27:12;100762.97;;;8.96;100.00
22872;BME280;11603;44.910;8.630;2023-04-08T06:29:55;100753.66;;;9.04;100.00
22872;BME280;11603;44.910;8.630;2023-04-08T06:39:47;100755.81;;;9.13;100.00
22872;BME280;11603;44.910;8.630;2023-04-08T06:43:01;100759.72;;;9.23;100.00
22872;BME280;11603;44.910;8.630;2023-04-08T06:46:00;100762.38;;;9.23;100.00
22872;BME280;11603;44.910;8.630;2023-04-08T06:48:58;100755.50;;;9.19;100.00
22872;BME280;11603;44.910;8.630;2023-04-08T06:54:33;100763.19;;;9.25;100.00
22872;BME280;11603;44.910;8.630;2023-04-08T06:57:19;100773.56;;;9.47;100.00
22872;BME280;11603;44.910;8.630;2023-04-08T07:00:20;100772.88;;;9.59;100.00
22872;BME280;11603;44.910;8.630;2023-04-08T07:03:14;100761.66;;;9.53;100.00
22872;BME280;11603;44.910;8.630;2023-04-08T07:05:43;100761.44;;;9.24;100.00
22872;BME280;11603;44.910;8.630;2023-04-08T07:08:31;100756.63;;;8.98;100.00
22872;BME280;11603;44.910;8.630;2023-04-08T07:11:05;100764.31;;;9.04;100.00
22872;BME280;11603;44.910;8.630;2023-04-08T07:13:58;100767.09;;;9.18;100.00
22872;BME280;11603;44.910;8.630;2023-04-08T07:16:26;100768.69;;;9.38;100.00
22872;BME280;11603;44.910;8.630;2023-04-08T07:19:01;100759.25;;;9.48;100.00
22872;BME280;11603;44.910;8.630;2023-04-08T07:21:28;100759.69;;;9.41;100.00
22872;BME280;11603;44.910;8.630;2023-04-08T07:23:55;100767.69;;;9.41;100.00
22872;BME280;11603;44.910;8.630;2023-04-08T07:29:36;100775.25;;;9.48;100.00
22872;BME280;11603;44.910;8.630;2023-04-08T07:32:09;100781.78;;;9.43;100.00
22872;BME280;11603;44.910;8.630;2023-04-08T07:34:35;100770.81;;;9.64;100.00
22872;BME280;11603;44.910;8.630;2023-04-08T07:37:08;100764.72;;;9.78;100.00
22872;BME280;11603;44.910;8.630;2023-04-08T07:42:41;100770.78;;;10.11;100.00
22872;BME280;11603;44.910;8.630;2023-04-08T07:45:10;100774.09;;;10.16;100.00
22872;BME280;11603;44.910;8.630;2023-04-08T07:47:50;100784.00;;;10.14;100.00
22872;BME280;11603;44.910;8.630;2023-04-08T07:50:16;100771.66;;;10.12;100.00
22872;BME280;11603;44.910;8.630;2023-04-08T07:52:48;100777.69;;;10.31;100.00
22872;BME280;11603;44.910;8.630;2023-04-08T07:55:49;100781.75;;;10.38;100.00
22872;BME280;11603;44.910;8.630;2023-04-08T08:01:40;100779.34;;;10.93;100.00
22872;BME280;11603;44.910;8.630;2023-04-08T08:04:08;100778.19;;;11.12;100.00
22872;BME280;11603;44.910;8.630;2023-04-08T08:06:40;100778.69;;;11.32;100.00
22872;BME280;11603;44.910;8.630;2023-04-08T08:09:37;100777.16;;;11.42;100.00
22872;BME280;11603;44.910;8.630;2023-04-08T08:12:03;100777.72;;;11.47;100.00
22872;BME280;11603;44.910;8.630;2023-04-08T08:14:32;100779.06;;;11.55;100.00
22872;BME280;11603;44.910;8.630;2023-04-08T08:17:16;100779.00;;;11.56;100.00
22872;BME280;11603;44.910;8.630;2023-04-08T08:20:01;100781.72;;;11.69;100.00
22872;BME280;11603;44.910;8.630;2023-04-08T08:22:31;100772.56;;;11.87;100.00
22872;BME280;11603;44.910;8.630;2023-04-08T08:25:07;100784.97;;;12.02;100.00
22872;BME280;11603;44.910;8.630;2023-04-08T08:27:41;100779.38;;;12.19;100.00
22872;BME280;11603;44.910;8.630;2023-04-08T08:30:10;100782.09;;;12.32;100.00
22872;BME280;11603;44.910;8.630;2023-04-08T08:32:46;100779.41;;;12.32;100.00
22872;BME280;11603;44.910;8.630;2023-04-08T08:35:12;100777.75;;;12.17;100.00
22872;BME280;11603;44.910;8.630;2023-04-08T08:38:19;100779.22;;;12.08;100.00
22872;BME280;11603;44.910;8.630;2023-04-08T08:42:02;100780.59;;;12.41;100.00
22872;BME280;11603;44.910;8.630;2023-04-08T08:45:19;100791.47;;;12.52;100.00
22872;BME280;11603;44.910;8.630;2023-04-08T08:47:54;100786.81;;;12.68;100.00
22872;BME280;11603;44.910;8.630;2023-04-08T08:54:31;100788.47;;;12.96;100.00
22872;BME280;11603;44.910;8.630;2023-04-08T09:04:37;100779.28;;;13.25;100.00
22872;BME280;11603;44.910;8.630;2023-04-08T09:17:48;100778.66;;;13.96;100.00
22872;BME280;11603;44.910;8.630;2023-04-08T09:32:00;100759.38;;;14.26;100.00
22872;BME280;11603;44.910;8.630;2023-04-08T09:34:30;100760.78;;;14.19;100.00
22872;BME280;11603;44.910;8.630;2023-04-08T09:37:15;100754.84;;;14.39;100.00
22872;BME280;11603;44.910;8.630;2023-04-08T09:40:13;100756.28;;;14.67;100.00
22872;BME280;11603;44.910;8.630;2023-04-08T09:43:08;100756.63;;;14.62;100.00
22872;BME280;11603;44.910;8.630;2023-04-08T09:45:45;100757.13;;;14.67;100.00
22872;BME280;11603;44.910;8.630;2023-04-08T09:59:02;100737.25;;;15.03;100.00
22872;BME280;11603;44.910;8.630;2023-04-08T10:05:07;100731.16;;;15.35;100.00
22872;BME280;11603;44.910;8.630;2023-04-08T10:30:07;100706.91;;;16.75;98.63
22872;BME280;11603;44.910;8.630;2023-04-08T10:33:31;100706.53;;;17.00;100.00
22872;BME280;11603;44.910;8.630;2023-04-08T10:39:52;100709.81;;;17.34;96.75
22872;BME280;11603;44.910;8.630;2023-04-08T10:42:18;100708.44;;;17.49;100.00
22872;BME280;11603;44.910;8.630;2023-04-08T10:51:45;100690.91;;;17.44;79.99
22872;BME280;11603;44.910;8.630;2023-04-08T10:54:58;100697.75;;;17.78;80.43
22872;BME280;11603;44.910;8.630;2023-04-08T10:57:29;100699.72;;;17.76;76.09
22872;BME280;11603;44.910;8.630;2023-04-08T11:01:21;100697.34;;;17.92;79.30
22872;BME280;11603;44.910;8.630;2023-04-08T11:14:00;100684.16;;;18.47;68.71
22872;BME280;11603;44.910;8.630;2023-04-08T11:19:41;100675.44;;;18.72;63.09
22872;BME280;11603;44.910;8.630;2023-04-08T11:23:21;100668.56;;;18.87;63.62
22872;BME280;11603;44.910;8.630;2023-04-08T11:34:00;100645.47;;;18.83;65.88
22872;BME280;11603;44.910;8.630;2023-04-08T11:36:27;100643.63;;;18.74;65.25
22872;BME280;11603;44.910;8.630;2023-04-08T11:38:55;100645.84;;;18.98;65.06
22872;BME280;11603;44.910;8.630;2023-04-08T11:41:56;100641.66;;;19.13;62.76
22872;BME280;11603;44.910;8.630;2023-04-08T11:44:43;100641.47;;;19.24;62.74
22872;BME280;11603;44.910;8.630;2023-04-08T11:47:10;100626.69;;;19.09;61.41
22872;BME280;11603;44.910;8.630;2023-04-08T11:49:45;100628.34;;;19.20;61.40
22872;BME280;11603;44.910;8.630;2023-04-08T11:52:12;100618.50;;;19.19;61.90
22872;BME280;11603;44.910;8.630;2023-04-08T11:58:07;100607.75;;;19.27;59.72
22872;BME280;11603;44.910;8.630;2023-04-08T12:04:50;100602.44;;;19.62;59.06
22872;BME280;11603;44.910;8.630;2023-04-08T12:14:44;100596.78;;;19.91;53.16
22872;BME280;11603;44.910;8.630;2023-04-08T12:24:26;100589.34;;;20.11;51.32
22872;BME280;11603;44.910;8.630;2023-04-08T12:55:27;100554.03;;;20.80;42.30
22872;BME280;11603;44.910;8.630;2023-04-08T12:58:03;100552.44;;;20.69;41.97
22872;BME280;11603;44.910;8.630;2023-04-08T13:04:16;100546.09;;;20.87;41.78
22872;BME280;11603;44.910;8.630;2023-04-08T13:11:15;100542.03;;;20.99;45.01
22872;BME280;11603;44.910;8.630;2023-04-08T13:14:03;100536.13;;;21.03;43.68
22872;BME280;11603;44.910;8.630;2023-04-08T13:16:37;100523.63;;;21.19;41.81
22872;BME280;11603;44.910;8.630;2023-04-08T13:19:06;100533.44;;;21.11;44.40
22872;BME280;11603;44.910;8.630;2023-04-08T13:28:53;100519.56;;;21.31;40.24
22872;BME280;11603;44.910;8.630;2023-04-08T13:34:32;100503.94;;;21.33;39.85
22872;BME280;11603;44.910;8.630;2023-04-08T13:36:57;100503.50;;;21.11;41.34
22872;BME280;11603;44.910;8.630;2023-04-08T13:39:44;100497.59;;;21.16;41.95
22872;BME280;11603;44.910;8.630;2023-04-08T13:42:10;100503.47;;;21.45;42.38
22872;BME280;11603;44.910;8.630;2023-04-08T13:44:36;100500.91;;;21.52;42.62
22872;BME280;11603;44.910;8.630;2023-04-08T13:47:02;100496.97;;;21.46;42.15
22872;BME280;11603;44.910;8.630;2023-04-08T13:49:30;100487.50;;;21.50;42.29
22872;BME280;11603;44.910;8.630;2023-04-08T13:52:47;100484.41;;;21.53;41.67
22872;BME280;11603;44.910;8.630;2023-04-08T13:55:14;100480.69;;;21.71;42.54
22872;BME280;11603;44.910;8.630;2023-04-08T13:58:15;100483.53;;;21.37;40.81
22872;BME280;11603;44.910;8.630;2023-04-08T14:07:56;100475.56;;;21.35;39.23
22872;BME280;11603;44.910;8.630;2023-04-08T14:14:12;100466.03;;;21.64;40.22
22872;BME280;11603;44.910;8.630;2023-04-08T14:16:51;100464.34;;;21.63;40.68
22872;BME280;11603;44.910;8.630;2023-04-08T14:19:18;100467.25;;;21.69;42.77
22872;BME280;11603;44.910;8.630;2023-04-08T14:21:53;100472.31;;;21.48;42.88
22872;BME280;11603;44.910;8.630;2023-04-08T14:24:18;100466.56;;;21.51;43.12
22872;BME280;11603;44.910;8.630;2023-04-08T14:26:47;100461.97;;;21.60;43.07
22872;BME280;11603;44.910;8.630;2023-04-08T14:29:33;100461.28;;;21.49;42.01
22872;BME280;11603;44.910;8.630;2023-04-08T14:35:41;100453.63;;;21.69;42.00
22872;BME280;11603;44.910;8.630;2023-04-08T14:47:32;100446.84;;;21.65;39.81
22872;BME280;11603;44.910;8.630;2023-04-08T14:58:21;100441.19;;;21.83;38.86
22872;BME280;11603;44.910;8.630;2023-04-08T15:12:29;100449.53;;;21.49;36.45
22872;BME280;11603;44.910;8.630;2023-04-08T15:15:12;100436.44;;;21.61;36.15
22872;BME280;11603;44.910;8.630;2023-04-08T15:25:08;100435.75;;;21.75;35.30
22872;BME280;11603;44.910;8.630;2023-04-08T15:38:30;100431.34;;;21.66;36.11
22872;BME280;11603;44.910;8.630;2023-04-08T15:47:50;100424.38;;;21.55;36.78
22872;BME280;11603;44.910;8.630;2023-04-08T15:54:47;100429.28;;;21.43;37.28
22872;BME280;11603;44.910;8.630;2023-04-08T15:57:28;100438.31;;;21.44;37.36
22872;BME280;11603;44.910;8.630;2023-04-08T16:08:39;100423.41;;;20.98;38.85
22872;BME280;11603;44.910;8.630;2023-04-08T16:11:19;100429.13;;;20.79;38.29
22872;BME280;11603;44.910;8.630;2023-04-08T16:23:06;100428.03;;;20.63;39.19
22872;BME280;11603;44.910;8.630;2023-04-08T16:36:48;100437.56;;;20.67;39.33
22872;BME280;11603;44.910;8.630;2023-04-08T16:43:57;100441.88;;;20.18;40.34
22872;BME280;11603;44.910;8.630;2023-04-08T16:46:56;100447.25;;;20.10;39.88
22872;BME280;11603;44.910;8.630;2023-04-08T16:50:07;100441.38;;;20.15;39.96
22872;BME280;11603;44.910;8.630;2023-04-08T16:52:33;100431.81;;;20.11;39.90
22872;BME280;11603;44.910;8.630;2023-04-08T16:54:59;100433.97;;;19.99;40.00
22872;BME280;11603;44.910;8.630;2023-04-08T16:57:27;100444.13;;;19.97;39.37
22872;BME280;11603;44.910;8.630;2023-04-08T17:04:14;100460.06;;;19.74;40.42
22872;BME280;11603;44.910;8.630;2023-04-08T17:07:02;100452.81;;;19.57;40.27
22872;BME280;11603;44.910;8.630;2023-04-08T17:09:33;100464.97;;;19.53;40.40
22872;BME280;11603;44.910;8.630;2023-04-08T17:16:57;100465.81;;;19.36;40.96
22872;BME280;11603;44.910;8.630;2023-04-08T17:28:11;100481.34;;;18.98;42.06
22872;BME280;11603;44.910;8.630;2023-04-08T17:52:01;100510.16;;;18.53;45.40
22872;BME280;11603;44.910;8.630;2023-04-08T17:54:48;100505.38;;;18.47;45.76
22872;BME280;11603;44.910;8.630;2023-04-08T17:57:29;100504.66;;;18.45;46.52
22872;BME280;11603;44.910;8.630;2023-04-08T18:07:42;100522.25;;;18.31;48.04
22872;BME280;11603;44.910;8.630;2023-04-08T18:10:56;100523.81;;;18.24;47.94
22872;BME280;11603;44.910;8.630;2023-04-08T18:13:21;100526.53;;;18.24;48.14
22872;BME280;11603;44.910;8.630;2023-04-08T18:15:49;100520.81;;;18.17;47.75
22872;BME280;11603;44.910;8.630;2023-04-08T18:18:22;100520.69;;;18.19;47.82
22872;BME280;11603;44.910;8.630;2023-04-08T18:20:49;100528.25;;;18.15;48.38
22872;BME280;11603;44.910;8.630;2023-04-08T18:27:58;100529.53;;;18.11;48.39
22872;BME280;11603;44.910;8.630;2023-04-08T18:42:40;100550.22;;;17.93;49.36
22872;BME280;11603;44.910;8.630;2023-04-08T18:46:26;100555.63;;;17.93;49.26
22872;BME280;11603;44.910;8.630;2023-04-08T18:49:07;100561.59;;;17.87;49.54
22872;BME280;11603;44.910;8.630;2023-04-08T18:55:13;100565.88;;;17.80;50.50
22872;BME280;11603;44.910;8.630;2023-04-08T18:57:39;100569.16;;;17.74;51.25
22872;BME280;11603;44.910;8.630;2023-04-08T19:00:05;100566.72;;;17.71;51.78
22872;BME280;11603;44.910;8.630;2023-04-08T19:07:08;100588.78;;;17.66;53.09
22872;BME280;11603;44.910;8.630;2023-04-08T19:10:02;100584.38;;;17.65;54.00
22872;BME280;11603;44.910;8.630;2023-04-08T19:22:37;100601.38;;;17.37;57.89
22872;BME280;11603;44.910;8.630;2023-04-08T19:25:06;100612.75;;;17.31;58.48
22872;BME280;11603;44.910;8.630;2023-04-08T19:27:33;100612.16;;;17.27;59.71
22872;BME280;11603;44.910;8.630;2023-04-08T19:29:58;100620.09;;;17.19;60.74
22872;BME280;11603;44.910;8.630;2023-04-08T19:37:15;100615.09;;;17.05;63.04
22872;BME280;11603;44.910;8.630;2023-04-08T19:43:10;100628.22;;;16.89;66.75
22872;BME280;11603;44.910;8.630;2023-04-08T19:45:35;100624.09;;;16.85;71.47
22872;BME280;11603;44.910;8.630;2023-04-08T20:03:18;100652.16;;;16.52;77.29
22872;BME280;11603;44.910;8.630;2023-04-08T20:13:44;100654.41;;;16.15;85.88
22872;BME280;11603;44.910;8.630;2023-04-08T20:16:39;100658.03;;;16.04;84.99
22872;BME280;11603;44.910;8.630;2023-04-08T20:19:04;100661.22;;;15.98;85.92
22872;BME280;11603;44.910;8.630;2023-04-08T20:26:11;100667.69;;;15.75;85.57
22872;BME280;11603;44.910;8.630;2023-04-08T20:28:30;100681.44;;;15.61;86.74
22872;BME280;11603;44.910;8.630;2023-04-08T20:31:07;100683.13;;;15.40;88.76
22872;BME280;11603;44.910;8.630;2023-04-08T20:33:33;100681.69;;;15.24;89.07
22872;BME280;11603;44.910;8.630;2023-04-08T20:39:43;100684.59;;;14.99;95.77
22872;BME280;11603;44.910;8.630;2023-04-08T20:42:42;100688.28;;;14.98;97.00
22872;BME280;11603;44.910;8.630;2023-04-08T20:45:08;100695.16;;;14.91;97.39
22872;BME280;11603;44.910;8.630;2023-04-08T20:47:36;100695.97;;;14.80;95.63
22872;BME280;11603;44.910;8.630;2023-04-08T20:50:41;100700.97;;;14.74;94.32
22872;BME280;11603;44.910;8.630;2023-04-08T20:53:38;100689.56;;;14.59;94.45
22872;BME280;11603;44.910;8.630;2023-04-08T20:56:24;100694.56;;;14.53;94.78
22872;BME280;11603;44.910;8.630;2023-04-08T20:58:50;100709.09;;;14.50;94.31
22872;BME280;11603;44.910;8.630;2023-04-08T21:01:19;100700.41;;;14.47;93.95
22872;BME280;11603;44.910;8.630;2023-04-08T21:07:24;100716.66;;;14.45;91.50
22872;BME280;11603;44.910;8.630;2023-04-08T21:10:32;100706.25;;;14.40;91.86
22872;BME280;11603;44.910;8.630;2023-04-08T21:13:24;100709.38;;;14.34;90.91
22872;BME280;11603;44.910;8.630;2023-04-08T21:16:42;100703.22;;;14.21;89.96
22872;BME280;11603;44.910;8.630;2023-04-08T21:19:08;100705.81;;;14.23;87.14
22872;BME280;11603;44.910;8.630;2023-04-08T21:21:36;100712.50;;;14.17;87.58
22872;BME280;11603;44.910;8.630;2023-04-08T21:24:02;100712.97;;;14.11;87.95
22872;BME280;11603;44.910;8.630;2023-04-08T21:26:38;100710.25;;;14.11;87.09
22872;BME280;11603;44.910;8.630;2023-04-08T21:29:08;100709.41;;;14.11;86.90
22872;BME280;11603;44.910;8.630;2023-04-08T21:34:43;100718.28;;;14.00;87.07
22872;BME280;11603;44.910;8.630;2023-04-08T21:37:14;100721.13;;;13.86;90.37
22872;BME280;11603;44.910;8.630;2023-04-08T21:39:40;100719.97;;;13.77;91.45
22872;BME280;11603;44.910;8.630;2023-04-08T21:42:06;100729.22;;;13.73;91.87
22872;BME280;11603;44.910;8.630;2023-04-08T21:44:37;100730.94;;;13.74;93.96
22872;BME280;11603;44.910;8.630;2023-04-08T21:51:10;100737.88;;;13.53;100.00
22872;BME280;11603;44.910;8.630;2023-04-08T21:54:06;100749.41;;;13.42;100.00
22872;BME280;11603;44.910;8.630;2023-04-08T21:56:43;100743.41;;;13.39;100.00
22872;BME280;11603;44.910;8.630;2023-04-08T21:59:09;100745.41;;;13.35;100.00
22872;BME280;11603;44.910;8.630;2023-04-08T22:04:50;100742.09;;;13.19;100.00
22872;BME280;11603;44.910;8.630;2023-04-08T22:07:43;100746.63;;;13.19;100.00